createdAt,value
2018-06-15T00:02:28.753Z,98583.14
2018-06-15T00:04:58.078Z,98581.39
2018-06-15T00:07:27.510Z,98578.05
2018-06-15T00:09:57.108Z,98575.19
2018-06-15T00:12:27.628Z,98575.31
2018-06-15T00:14:57.396Z,98574.46
2018-06-15T00:17:27.981Z,98574.92
2018-06-15T00:19:57.257Z,98578.44
2018-06-15T00:22:26.479Z,98573.25
2018-06-15T00:24:55.866Z,98572.56
2018-06-15T00:27:25.102Z,98575.85
2018-06-15T00:29:55.054Z,98569.48
2018-06-15T00:32:24.436Z,98570.84
2018-06-15T00:34:54.998Z,98569.12
2018-06-15T00:37:24.323Z,98575.95
2018-06-15T00:39:53.973Z,98578.74
2018-06-15T00:42:23.698Z,98574.44
2018-06-15T00:44:53.822Z,98576.91
2018-06-15T00:47:24.303Z,98579.45
2018-06-15T00:49:53.983Z,98580.74
2018-06-15T00:52:23.495Z,98579.80
2018-06-15T00:54:53.367Z,98577.45
2018-06-15T00:57:47.489Z,98581.13
2018-06-15T01:00:17.681Z,98579.74
2018-06-15T01:02:47.079Z,98582.76
2018-06-15T01:05:16.557Z,98582.58
2018-06-15T01:07:46.863Z,98579.62
2018-06-15T01:10:39.080Z,98582.76
2018-06-15T01:16:17.784Z,98577.78
2018-06-15T01:19:01.272Z,98575.37
2018-06-15T01:24:44.388Z,98578.11
2018-06-15T01:27:13.739Z,98582.74
2018-06-15T01:29:43.092Z,98577.88
2018-06-15T01:32:12.653Z,98574.99
2018-06-15T01:34:42.059Z,98571.13
2018-06-15T01:37:12.321Z,98575.45
2018-06-15T01:39:46.308Z,98563.55
2018-06-15T01:42:15.906Z,98573.06
2018-06-15T01:44:45.534Z,98575.55
2018-06-15T01:47:15.075Z,98574.33
2018-06-15T01:49:44.574Z,98564.61
2018-06-15T01:52:14.231Z,98578.00
2018-06-15T01:54:44.347Z,98576.33
2018-06-15T01:57:14.172Z,98568.13
2018-06-15T01:59:43.989Z,98579.55
2018-06-15T02:02:13.800Z,98575.20
2018-06-15T02:04:45.359Z,98571.84
2018-06-15T02:07:16.614Z,98569.77
2018-06-15T02:09:48.900Z,98570.77
2018-06-15T02:12:29.510Z,98578.92
2018-06-15T02:14:59.739Z,98585.00
2018-06-15T02:17:29.912Z,98587.83
2018-06-15T02:20:04.996Z,98582.98
2018-06-15T02:25:31.847Z,98592.55
2018-06-15T02:28:01.664Z,98586.31
2018-06-15T02:30:31.172Z,98592.30
2018-06-15T02:33:02.915Z,98593.61
2018-06-15T02:35:32.431Z,98597.46
2018-06-15T02:38:02.000Z,98593.89
2018-06-15T02:40:31.805Z,98593.79
2018-06-15T02:43:01.304Z,98595.43
2018-06-15T02:45:31.091Z,98595.43
2018-06-15T02:48:02.772Z,98596.92
2018-06-15T02:50:32.600Z,98599.09
2018-06-15T02:53:02.661Z,98607.11
2018-06-15T02:55:32.526Z,98604.13
2018-06-15T02:58:02.010Z,98603.20
2018-06-15T03:00:31.419Z,98605.56
2018-06-15T03:04:33.617Z,98609.17
2018-06-15T03:07:05.791Z,98606.87
2018-06-15T03:09:36.765Z,98608.80
2018-06-15T03:17:26.031Z,98608.27
2018-06-15T03:29:11.311Z,98613.49
2018-06-15T03:31:40.880Z,98617.14
2018-06-15T03:34:10.209Z,98609.75
2018-06-15T03:36:39.490Z,98616.08
2018-06-15T03:39:10.980Z,98605.30
2018-06-15T03:41:40.756Z,98610.76
2018-06-15T03:44:10.008Z,98608.70
2018-06-15T03:46:47.956Z,98605.11
2018-06-15T03:49:17.243Z,98604.61
2018-06-15T03:54:55.635Z,98605.80
2018-06-15T03:57:25.193Z,98609.91
2018-06-15T03:59:54.308Z,98611.78
2018-06-15T04:02:23.390Z,98612.77
2018-06-15T04:04:52.704Z,98612.94
2018-06-15T04:07:22.641Z,98610.25
2018-06-15T04:09:51.740Z,98613.80
2018-06-15T04:12:21.058Z,98612.11
2018-06-15T04:14:50.349Z,98606.19
2018-06-15T04:17:19.662Z,98612.28
2018-06-15T04:19:49.553Z,98610.88
2018-06-15T04:22:19.209Z,98606.09
2018-06-15T04:24:48.526Z,98606.57
2018-06-15T04:27:17.737Z,98607.98
2018-06-15T04:29:46.905Z,98608.11
2018-06-15T04:32:16.198Z,98605.47
2018-06-15T04:34:45.291Z,98605.56
2018-06-15T04:37:14.438Z,98613.03
2018-06-15T04:39:45.012Z,98609.12
2018-06-15T04:42:14.098Z,98612.89
2018-06-15T04:45:46.217Z,98618.11
2018-06-15T04:48:15.136Z,98615.63
2018-06-15T04:50:44.262Z,98618.31
2018-06-15T04:53:13.745Z,98616.96
2018-06-15T04:55:42.916Z,98608.88
2018-06-15T04:58:12.135Z,98615.58
2018-06-15T05:00:41.411Z,98615.20
2018-06-15T05:03:14.068Z,98616.27
2018-06-15T05:05:44.642Z,98611.28
2018-06-15T05:08:13.662Z,98614.64
2018-06-15T05:10:42.830Z,98618.40
2018-06-15T05:13:12.288Z,98616.73
2018-06-15T05:15:41.553Z,98620.05
2018-06-15T05:18:10.680Z,98616.88
2018-06-15T05:20:39.861Z,98614.87
2018-06-15T05:23:09.042Z,98615.30
2018-06-15T05:25:38.150Z,98615.73
2018-06-15T05:28:07.318Z,98615.83
2018-06-15T05:30:36.261Z,98617.16
2018-06-15T05:33:05.336Z,98612.69
2018-06-15T05:35:34.254Z,98611.72
2018-06-15T05:38:03.135Z,98616.05
2018-06-15T05:40:32.191Z,98621.78
2018-06-15T05:43:01.407Z,98611.51
2018-06-15T05:45:30.561Z,98612.27
2018-06-15T05:47:59.646Z,98618.42
2018-06-15T05:50:28.804Z,98613.17
2018-06-15T05:52:57.742Z,98607.61
2018-06-15T05:55:26.953Z,98626.38
2018-06-15T05:57:56.803Z,98621.33
2018-06-15T06:00:25.888Z,98618.14
2018-06-15T06:02:54.928Z,98625.70
2018-06-15T06:05:24.025Z,98614.45
2018-06-15T06:07:53.311Z,98620.54
2018-06-15T06:10:22.500Z,98620.25
2018-06-15T06:12:51.575Z,98627.20
2018-06-15T06:15:20.697Z,98619.44
2018-06-15T06:17:49.791Z,98627.83
2018-06-15T06:20:18.958Z,98616.42
2018-06-15T06:22:48.036Z,98622.24
2018-06-15T06:25:17.043Z,98624.22
2018-06-15T06:27:46.052Z,98626.45
2018-06-15T06:30:15.179Z,98628.34
2018-06-15T06:32:44.401Z,98630.38
2018-06-15T06:35:13.438Z,98632.61
2018-06-15T06:37:42.671Z,98627.62
2018-06-15T06:40:11.729Z,98625.33
2018-06-15T06:42:41.031Z,98622.97
2018-06-15T06:45:10.193Z,98623.69
2018-06-15T06:47:39.220Z,98626.95
2018-06-15T06:50:08.369Z,98617.03
2018-06-15T06:52:37.456Z,98621.42
2018-06-15T06:55:06.594Z,98618.89
2018-06-15T06:57:35.707Z,98623.56
2018-06-15T07:00:05.120Z,98621.12
2018-06-15T07:02:34.259Z,98620.14
2018-06-15T07:05:03.385Z,98614.50
2018-06-15T07:07:32.535Z,98619.95
2018-06-15T07:10:01.557Z,98612.00
2018-06-15T07:12:30.692Z,98613.92
2018-06-15T07:14:59.816Z,98613.70
2018-06-15T07:17:29.000Z,98613.72
2018-06-15T07:19:58.088Z,98613.75
2018-06-15T07:22:27.244Z,98609.25
2018-06-15T07:24:56.296Z,98611.33
2018-06-15T07:27:25.379Z,98617.89
2018-06-15T07:29:54.558Z,98616.55
2018-06-15T07:32:23.690Z,98616.01
2018-06-15T07:34:52.908Z,98613.37
2018-06-15T07:37:22.128Z,98613.59
2018-06-15T07:39:51.302Z,98611.34
2018-06-15T07:42:20.876Z,98606.98
2018-06-15T07:44:49.952Z,98613.37
2018-06-15T07:47:19.100Z,98615.22
2018-06-15T07:49:48.456Z,98610.57
2018-06-15T07:52:17.929Z,98611.43
2018-06-15T11:46:24.284Z,98532.48
2018-06-15T11:49:10.723Z,98545.94
2018-06-15T11:51:41.994Z,98552.84
2018-06-15T11:54:11.365Z,98550.89
2018-06-15T11:56:40.711Z,98558.21
2018-06-15T11:59:10.382Z,98556.78
2018-06-15T12:01:39.851Z,98550.24
2018-06-15T12:04:09.225Z,98541.74
2018-06-15T12:06:39.136Z,98544.09
2018-06-15T12:09:16.505Z,98542.50
2018-06-15T12:11:47.234Z,98546.16
2018-06-15T12:14:16.488Z,98550.20
2018-06-15T12:16:45.799Z,98549.46
2018-06-15T12:19:15.324Z,98541.89
2018-06-15T13:29:25.690Z,98479.58
2018-06-15T13:31:55.042Z,98556.98
2018-06-15T13:34:24.267Z,98579.52
2018-06-15T13:36:53.823Z,98588.91
2018-06-15T13:39:23.332Z,98591.91
2018-06-15T13:47:37.789Z,98542.92
2018-06-15T13:57:33.436Z,98556.08
2018-06-15T15:00:38.154Z,98450.67
2018-06-15T15:25:06.416Z,98539.29
2018-06-15T15:27:35.734Z,98546.66
2018-06-15T15:30:04.974Z,98559.06
2018-06-15T15:32:34.201Z,98569.25
2018-06-15T15:35:03.204Z,98578.49
2018-06-15T15:37:32.362Z,98589.05
2018-06-15T15:40:01.384Z,98592.09
2018-06-15T15:42:30.401Z,98595.82
2018-06-15T15:44:59.408Z,98602.52
2018-06-15T15:47:28.840Z,98612.75
2018-06-15T15:49:58.066Z,98612.94
2018-06-15T15:52:27.198Z,98599.34
2018-06-15T15:54:56.672Z,98597.83
2018-06-15T15:57:25.677Z,98589.12
2018-06-15T15:59:54.783Z,98587.09
2018-06-15T16:02:24.177Z,98586.13
2018-06-15T16:04:53.145Z,98588.14
2018-06-15T16:07:22.252Z,98591.80
2018-06-15T16:09:52.066Z,98577.05
2018-06-15T16:12:21.279Z,98569.98
2018-06-15T16:14:58.136Z,98567.47
2018-06-15T16:17:27.371Z,98563.25
2018-06-15T16:19:56.638Z,98558.89
2018-06-15T16:22:26.268Z,98559.85
2018-06-15T16:24:55.408Z,98564.50
2018-06-15T16:27:24.480Z,98563.45
2018-06-15T16:29:53.559Z,98556.41
2018-06-15T16:32:22.657Z,98560.23
2018-06-15T16:34:51.639Z,98557.06
2018-06-15T16:37:21.322Z,98563.07
2018-06-15T16:39:50.451Z,98569.13
2018-06-15T16:42:19.637Z,98572.15
2018-06-15T16:44:49.108Z,98583.58
2018-06-15T16:47:18.485Z,98594.99
2018-06-15T16:49:47.536Z,98599.70
2018-06-15T16:52:17.056Z,98605.11
2018-06-15T16:54:47.160Z,98617.84
2018-06-15T16:57:17.651Z,98621.56
2018-06-15T16:59:46.760Z,98630.96
2018-06-15T17:02:15.780Z,98632.98
2018-06-15T17:04:44.980Z,98637.02
2018-06-15T17:07:14.201Z,98640.09
2018-06-15T17:09:43.316Z,98637.72
2018-06-15T17:12:12.487Z,98644.78
2018-06-15T17:14:41.564Z,98646.16
2018-06-15T17:17:10.749Z,98650.84
2018-06-15T17:19:40.009Z,98657.74
2018-06-15T17:22:09.214Z,98660.09
2018-06-15T17:24:38.239Z,98660.59
2018-06-15T17:27:07.557Z,98660.91
2018-06-15T17:29:36.696Z,98674.35
2018-06-15T17:32:05.792Z,98674.67
2018-06-15T17:34:35.038Z,98682.89
2018-06-15T17:37:04.150Z,98689.45
2018-06-15T17:39:33.325Z,98692.82
2018-06-15T17:42:02.451Z,98688.11
2018-06-15T17:44:31.689Z,98687.09
2018-06-15T17:47:00.643Z,98701.52
2018-06-15T17:49:29.907Z,98691.63
2018-06-15T17:51:59.213Z,98702.66
2018-06-15T17:54:28.455Z,98704.20
2018-06-15T17:56:57.607Z,98691.28
2018-06-15T17:59:26.671Z,98686.41
2018-06-15T18:01:55.815Z,98689.44
2018-06-15T18:04:25.527Z,98684.06
2018-06-15T18:06:54.620Z,98681.89
2018-06-15T18:09:23.841Z,98682.20
2018-06-15T18:11:53.024Z,98673.66
2018-06-15T18:14:22.147Z,98680.38
2018-06-15T18:16:51.221Z,98683.37
2018-06-15T18:19:20.396Z,98672.47
2018-06-15T18:21:49.509Z,98668.62
2018-06-15T18:24:18.626Z,98670.27
2018-06-15T18:26:47.778Z,98665.88
2018-06-15T18:29:16.874Z,98675.78
2018-06-15T18:31:45.991Z,98683.75
2018-06-15T18:34:16.155Z,98679.03
2018-06-15T18:36:45.252Z,98679.03
2018-06-15T18:39:15.283Z,98675.55
2018-06-15T18:41:45.064Z,98673.50
2018-06-15T18:44:14.201Z,98679.70
2018-06-15T18:46:43.245Z,98682.55
2018-06-15T18:49:12.403Z,98680.07
2018-06-15T18:51:41.444Z,98680.91
2018-06-15T18:55:13.585Z,98670.98
2018-06-15T18:57:48.679Z,98685.44
2018-06-15T19:00:21.885Z,98691.63
2018-06-15T19:02:51.019Z,98699.17
2018-06-15T19:05:21.044Z,98700.69
2018-06-15T19:07:50.269Z,98701.75
2018-06-15T19:10:20.040Z,98707.12
2018-06-15T19:12:50.416Z,98709.56
2018-06-15T19:15:19.477Z,98705.04
2018-06-15T19:17:48.556Z,98707.84
2018-06-15T19:20:17.809Z,98709.83
2018-06-15T19:22:47.058Z,98714.72
2018-06-15T19:25:16.120Z,98714.00
2018-06-15T19:27:45.159Z,98710.98
2018-06-15T19:30:14.298Z,98714.79
2018-06-15T19:32:43.341Z,98715.12
2018-06-15T19:35:12.541Z,98722.09
2018-06-15T19:37:41.727Z,98725.95
2018-06-15T19:40:10.917Z,98729.42
2018-06-15T19:42:40.097Z,98732.59
2018-06-15T19:46:38.389Z,98729.39
2018-06-15T19:49:07.428Z,98747.17
2018-06-15T19:51:36.679Z,98747.57
2018-06-15T19:54:05.855Z,98748.75
2018-06-15T19:56:34.877Z,98746.27
2018-06-15T19:59:04.252Z,98746.95
2018-06-15T20:01:33.621Z,98752.47
2018-06-15T20:04:02.809Z,98743.87
2018-06-15T20:06:32.217Z,98743.04
2018-06-15T20:09:01.362Z,98743.20
2018-06-15T20:11:30.424Z,98744.37
2018-06-15T20:13:59.921Z,98750.41
2018-06-15T20:16:29.354Z,98745.89
2018-06-15T20:18:58.615Z,98747.39
2018-06-15T20:21:27.634Z,98744.00
2018-06-15T20:23:56.731Z,98750.02
2018-06-15T20:26:25.804Z,98746.60
2018-06-15T20:28:54.849Z,98743.89
2018-06-15T20:31:23.945Z,98744.51
2018-06-15T20:33:53.410Z,98743.66
2018-06-15T20:36:22.705Z,98750.77
2018-06-15T20:38:51.834Z,98754.78
2018-06-15T20:41:20.946Z,98748.41
2018-06-15T20:45:19.652Z,98752.08
2018-06-15T20:47:48.754Z,98745.16
2018-06-15T20:50:17.802Z,98750.69
2018-06-15T20:52:46.831Z,98753.53
2018-06-15T20:55:15.826Z,98757.36
2018-06-15T20:57:44.775Z,98763.73
2018-06-15T21:00:13.973Z,98760.41
2018-06-15T21:02:43.000Z,98761.11
2018-06-15T21:05:12.056Z,98767.47
2018-06-15T21:07:42.030Z,98767.73
2018-06-15T21:10:11.247Z,98769.00
2018-06-15T21:12:40.297Z,98772.06
2018-06-15T21:15:09.977Z,98776.49
2018-06-15T21:17:38.878Z,98780.66
2018-06-15T21:20:08.146Z,98780.98
2018-06-15T21:22:37.141Z,98779.02
2018-06-15T21:25:06.344Z,98782.16
2018-06-15T21:27:35.314Z,98788.19
2018-06-15T21:30:04.529Z,98788.83
2018-06-15T21:32:33.702Z,98788.97
2018-06-15T21:35:02.849Z,98786.14
2018-06-15T21:37:32.102Z,98788.08
2018-06-15T21:40:01.221Z,98782.70
2018-06-15T21:42:30.278Z,98788.98
2018-06-15T21:44:59.494Z,98775.42
2018-06-15T21:47:28.520Z,98774.41
2018-06-15T21:49:57.648Z,98769.83
2018-06-15T21:52:26.688Z,98779.48
2018-06-15T21:54:55.819Z,98781.13
2018-06-15T21:57:25.355Z,98785.67
2018-06-15T21:59:54.408Z,98778.14
2018-06-15T22:02:23.393Z,98774.38
2018-06-15T22:04:52.431Z,98769.66
2018-06-15T22:07:21.598Z,98770.59
2018-06-15T22:09:50.705Z,98768.16
2018-06-15T22:12:19.875Z,98769.41
2018-06-15T22:14:48.963Z,98768.81
2018-06-15T22:17:18.969Z,98774.22
2018-06-15T22:19:48.922Z,98775.13
2018-06-15T22:22:19.187Z,98763.61
2018-06-15T22:24:51.946Z,98771.70
2018-06-15T22:27:21.647Z,98769.03
2018-06-15T22:29:53.107Z,98764.52
2018-06-15T22:32:22.319Z,98761.84
2018-06-15T22:34:51.319Z,98763.25
2018-06-15T22:37:20.449Z,98758.43
2018-06-15T22:39:55.206Z,98752.30
2018-06-15T22:42:25.110Z,98750.18
2018-06-15T22:44:54.452Z,98758.16
2018-06-15T22:47:23.558Z,98754.65
2018-06-15T22:49:52.590Z,98755.47
2018-06-15T22:52:21.705Z,98754.97
2018-06-15T22:54:51.901Z,98753.91
2018-06-15T22:57:20.877Z,98748.28
2018-06-15T22:59:49.997Z,98752.38
2018-06-15T23:02:19.141Z,98749.31
2018-06-15T23:04:48.499Z,98747.64
2018-06-15T23:07:17.600Z,98740.01
2018-06-15T23:09:47.031Z,98751.34
2018-06-15T23:12:16.107Z,98751.79
2018-06-15T23:14:45.175Z,98742.52
2018-06-15T23:17:14.308Z,98745.95
2018-06-15T23:19:43.327Z,98751.79
2018-06-15T23:22:12.374Z,98755.45
2018-06-15T23:24:41.367Z,98753.81
2018-06-15T23:27:10.467Z,98752.36
2018-06-15T23:29:39.418Z,98749.34
2018-06-15T23:32:08.456Z,98764.01
2018-06-15T23:34:37.636Z,98764.52
2018-06-15T23:37:06.481Z,98759.48
2018-06-15T23:39:35.525Z,98761.59
2018-06-15T23:42:04.653Z,98769.68
2018-06-15T23:44:33.724Z,98770.43
2018-06-15T23:47:02.815Z,98765.86
2018-06-15T23:49:31.777Z,98752.27
2018-06-15T23:52:00.723Z,98761.63
2018-06-15T23:54:29.885Z,98775.97
2018-06-15T23:56:59.045Z,98783.22
2018-06-15T23:59:28.009Z,98779.42
